Terminal Aerodrome Forecast
Issued by NWS

Home | Current Version | Previous Version | Text Only | Print | Product List | Glossary On
Versions: 1 2 3 4 5 6 7 8 9 10 11 12 13 14 15 16 17 18 19 20 21 22 23 24 25 26 27 28 29 30 31 32 33 34
000
FTUS42 KGSP 260840 AAA
TAFHKY
TAF AMD
KHKY 260840Z 2609/2706 21003KT P6SM FEW025 BKN110
      TEMPO 2612/2614 VRB03KT 4SM -RA SCT010 BKN025
     FM261400 29004KT P6SM BKN025
     FM261700 30008G15KT P6SM BKN040
     FM262000 31012G20KT P6SM BKN060
     FM270000 31010KT P6SM SCT100=

USA.gov is the U.S. government's official web portal to all federal, state and local government web resources and services.